sensor_id;sensor_type;location;lat;lon;timestamp;pressure;altitude;pressure_sealevel;temperature;humidity
24620;BME280;12763;55.802;37.404;2023-03-29T00:00:40;98604.69;;;9.71;98.74
24620;BME280;12763;55.802;37.404;2023-03-29T00:03:06;98594.84;;;9.75;97.83
24620;BME280;12763;55.802;37.404;2023-03-29T00:05:32;98603.84;;;9.71;97.99
24620;BME280;12763;55.802;37.404;2023-03-29T00:08:00;98596.38;;;9.60;98.55
24620;BME280;12763;55.802;37.404;2023-03-29T00:10:30;98594.22;;;9.62;98.87
24620;BME280;12763;55.802;37.404;2023-03-29T00:12:56;98591.97;;;9.29;100.00
24620;BME280;12763;55.802;37.404;2023-03-29T00:15:22;98583.78;;;9.52;99.80
24620;BME280;12763;55.802;37.404;2023-03-29T00:17:48;98590.50;;;9.56;99.44
24620;BME280;12763;55.802;37.404;2023-03-29T00:20:14;98588.03;;;9.66;98.44
24620;BME280;12763;55.802;37.404;2023-03-29T00:22:41;98584.91;;;9.63;99.31
24620;BME280;12763;55.802;37.404;2023-03-29T00:25:12;98592.66;;;9.54;99.49
24620;BME280;12763;55.802;37.404;2023-03-29T00:27:38;98586.03;;;9.43;99.99
24620;BME280;12763;55.802;37.404;2023-03-29T00:30:06;98580.91;;;9.47;100.00
24620;BME280;12763;55.802;37.404;2023-03-29T00:32:32;98564.47;;;9.40;100.00
24620;BME280;12763;55.802;37.404;2023-03-29T00:34:58;98577.44;;;9.52;99.76
24620;BME280;12763;55.802;37.404;2023-03-29T00:37:27;98571.19;;;9.15;100.00
24620;BME280;12763;55.802;37.404;2023-03-29T00:39:55;98567.16;;;9.47;99.66
24620;BME280;12763;55.802;37.404;2023-03-29T00:42:22;98556.00;;;9.12;100.00
24620;BME280;12763;55.802;37.404;2023-03-29T00:47:25;98561.03;;;9.57;99.45
24620;BME280;12763;55.802;37.404;2023-03-29T00:49:53;98562.09;;;9.56;98.17
24620;BME280;12763;55.802;37.404;2023-03-29T00:52:20;98553.00;;;9.43;98.16
24620;BME280;12763;55.802;37.404;2023-03-29T00:54:50;98561.88;;;9.57;97.47
24620;BME280;12763;55.802;37.404;2023-03-29T00:57:19;98557.91;;;9.41;97.87
24620;BME280;12763;55.802;37.404;2023-03-29T00:59:47;98554.94;;;9.55;97.37
24620;BME280;12763;55.802;37.404;2023-03-29T01:02:15;98555.66;;;9.62;96.80
24620;BME280;12763;55.802;37.404;2023-03-29T01:04:59;98552.34;;;9.71;96.11
24620;BME280;12763;55.802;37.404;2023-03-29T01:07:39;98543.34;;;9.64;95.95
24620;BME280;12763;55.802;37.404;2023-03-29T01:10:48;98551.59;;;9.64;95.91
24620;BME280;12763;55.802;37.404;2023-03-29T01:13:23;98545.72;;;9.49;97.02
24620;BME280;12763;55.802;37.404;2023-03-29T01:15:52;98543.00;;;9.19;98.11
24620;BME280;12763;55.802;37.404;2023-03-29T01:18:19;98544.13;;;9.41;97.41
24620;BME280;12763;55.802;37.404;2023-03-29T01:21:24;98537.88;;;9.34;97.83
24620;BME280;12763;55.802;37.404;2023-03-29T01:29:18;98538.75;;;9.47;96.41
24620;BME280;12763;55.802;37.404;2023-03-29T01:32:28;98538.63;;;9.41;96.92
24620;BME280;12763;55.802;37.404;2023-03-29T01:34:54;98519.00;;;9.61;96.36
24620;BME280;12763;55.802;37.404;2023-03-29T01:37:35;98520.22;;;9.54;95.77
24620;BME280;12763;55.802;37.404;2023-03-29T01:40:02;98515.69;;;9.18;98.14
24620;BME280;12763;55.802;37.404;2023-03-29T01:42:52;98522.22;;;9.35;96.67
24620;BME280;12763;55.802;37.404;2023-03-29T01:45:42;98508.84;;;9.62;94.83
24620;BME280;12763;55.802;37.404;2023-03-29T01:51:22;98507.72;;;9.39;97.89
24620;BME280;12763;55.802;37.404;2023-03-29T01:56:22;98500.47;;;9.57;95.75
24620;BME280;12763;55.802;37.404;2023-03-29T01:58:56;98508.84;;;9.62;95.15
24620;BME280;12763;55.802;37.404;2023-03-29T02:01:29;98511.19;;;9.35;97.15
24620;BME280;12763;55.802;37.404;2023-03-29T02:04:03;98501.22;;;9.64;95.83
24620;BME280;12763;55.802;37.404;2023-03-29T02:06:32;98498.78;;;9.67;94.21
24620;BME280;12763;55.802;37.404;2023-03-29T02:09:00;98495.44;;;9.65;94.93
24620;BME280;12763;55.802;37.404;2023-03-29T02:11:27;98485.84;;;9.56;94.73
24620;BME280;12763;55.802;37.404;2023-03-29T02:13:55;98485.94;;;9.38;96.88
24620;BME280;12763;55.802;37.404;2023-03-29T02:16:21;98487.59;;;9.27;97.91
24620;BME280;12763;55.802;37.404;2023-03-29T02:18:49;98486.50;;;9.28;97.53
24620;BME280;12763;55.802;37.404;2023-03-29T02:21:46;98480.09;;;9.46;96.92
24620;BME280;12763;55.802;37.404;2023-03-29T02:24:18;98472.56;;;9.41;97.03
24620;BME280;12763;55.802;37.404;2023-03-29T02:26:45;98467.53;;;8.97;100.00
24620;BME280;12763;55.802;37.404;2023-03-29T02:29:11;98457.09;;;9.40;97.33
24620;BME280;12763;55.802;37.404;2023-03-29T02:31:44;98468.97;;;9.64;95.39
24620;BME280;12763;55.802;37.404;2023-03-29T02:34:20;98469.44;;;9.73;94.76
24620;BME280;12763;55.802;37.404;2023-03-29T02:37:08;98463.47;;;9.53;96.69
24620;BME280;12763;55.802;37.404;2023-03-29T02:39:36;98462.59;;;9.40;96.70
24620;BME280;12763;55.802;37.404;2023-03-29T02:42:04;98468.00;;;9.59;95.97
24620;BME280;12763;55.802;37.404;2023-03-29T02:44:32;98455.09;;;9.71;94.69
24620;BME280;12763;55.802;37.404;2023-03-29T02:47:17;98466.06;;;9.48;97.73
24620;BME280;12763;55.802;37.404;2023-03-29T02:49:44;98455.44;;;9.63;95.38
24620;BME280;12763;55.802;37.404;2023-03-29T02:52:15;98450.06;;;9.68;95.40
24620;BME280;12763;55.802;37.404;2023-03-29T02:54:45;98448.97;;;9.57;96.06
24620;BME280;12763;55.802;37.404;2023-03-29T02:57:12;98444.88;;;9.48;96.39
24620;BME280;12763;55.802;37.404;2023-03-29T02:59:38;98433.72;;;9.31;98.19
24620;BME280;12763;55.802;37.404;2023-03-29T03:02:05;98441.91;;;9.50;96.44
24620;BME280;12763;55.802;37.404;2023-03-29T03:04:32;98444.66;;;9.73;94.76
24620;BME280;12763;55.802;37.404;2023-03-29T03:07:01;98442.88;;;9.55;95.46
24620;BME280;12763;55.802;37.404;2023-03-29T03:09:27;98444.66;;;9.38;97.72
24620;BME280;12763;55.802;37.404;2023-03-29T03:11:53;98431.69;;;9.27;96.10
24620;BME280;12763;55.802;37.404;2023-03-29T03:14:19;98435.06;;;9.40;97.60
24620;BME280;12763;55.802;37.404;2023-03-29T03:16:48;98434.38;;;9.57;95.88
24620;BME280;12763;55.802;37.404;2023-03-29T03:19:14;98427.88;;;9.39;96.57
24620;BME280;12763;55.802;37.404;2023-03-29T03:21:42;98425.59;;;9.36;97.25
24620;BME280;12763;55.802;37.404;2023-03-29T03:24:08;98421.53;;;9.39;97.10
24620;BME280;12763;55.802;37.404;2023-03-29T03:26:35;98423.97;;;9.47;96.04
24620;BME280;12763;55.802;37.404;2023-03-29T03:29:04;98411.72;;;9.31;97.50
24620;BME280;12763;55.802;37.404;2023-03-29T03:32:02;98419.63;;;9.39;97.02
24620;BME280;12763;55.802;37.404;2023-03-29T03:34:47;98416.28;;;9.37;96.47
24620;BME280;12763;55.802;37.404;2023-03-29T03:37:13;98423.34;;;9.57;95.35
24620;BME280;12763;55.802;37.404;2023-03-29T03:39:40;98414.03;;;9.58;95.49
24620;BME280;12763;55.802;37.404;2023-03-29T03:42:08;98414.47;;;9.43;96.40
24620;BME280;12763;55.802;37.404;2023-03-29T03:44:37;98411.25;;;9.58;95.71
24620;BME280;12763;55.802;37.404;2023-03-29T03:47:28;98414.72;;;9.65;95.10
24620;BME280;12763;55.802;37.404;2023-03-29T03:50:00;98404.91;;;9.69;94.57
24620;BME280;12763;55.802;37.404;2023-03-29T03:52:26;98410.41;;;9.45;95.95
24620;BME280;12763;55.802;37.404;2023-03-29T03:54:52;98408.16;;;9.66;95.67
24620;BME280;12763;55.802;37.404;2023-03-29T03:57:39;98416.16;;;9.90;93.52
24620;BME280;12763;55.802;37.404;2023-03-29T04:00:11;98419.41;;;9.53;95.42
24620;BME280;12763;55.802;37.404;2023-03-29T04:03:05;98397.97;;;9.55;96.10
24620;BME280;12763;55.802;37.404;2023-03-29T04:05:32;98408.50;;;9.46;96.38
24620;BME280;12763;55.802;37.404;2023-03-29T04:07:58;98400.25;;;9.58;95.80
24620;BME280;12763;55.802;37.404;2023-03-29T04:10:52;98397.84;;;9.73;94.56
24620;BME280;12763;55.802;37.404;2023-03-29T04:13:23;98394.84;;;9.39;96.46
24620;BME280;12763;55.802;37.404;2023-03-29T04:16:19;98399.84;;;9.89;93.23
24620;BME280;12763;55.802;37.404;2023-03-29T04:18:46;98398.09;;;9.60;94.91
24620;BME280;12763;55.802;37.404;2023-03-29T04:21:12;98403.59;;;9.83;93.58
24620;BME280;12763;55.802;37.404;2023-03-29T04:23:38;98402.13;;;9.92;93.11
24620;BME280;12763;55.802;37.404;2023-03-29T04:26:04;98396.75;;;9.74;92.96
24620;BME280;12763;55.802;37.404;2023-03-29T04:28:45;98387.94;;;10.12;92.54
24620;BME280;12763;55.802;37.404;2023-03-29T04:31:37;98387.28;;;9.93;93.09
24620;BME280;12763;55.802;37.404;2023-03-29T04:34:32;98390.59;;;10.30;90.07
24620;BME280;12763;55.802;37.404;2023-03-29T04:36:58;98386.63;;;10.26;89.95
24620;BME280;12763;55.802;37.404;2023-03-29T04:39:24;98387.97;;;10.00;91.87
24620;BME280;12763;55.802;37.404;2023-03-29T04:41:57;98379.50;;;9.90;92.01
24620;BME280;12763;55.802;37.404;2023-03-29T04:44:26;98383.56;;;9.87;92.32
24620;BME280;12763;55.802;37.404;2023-03-29T04:46:53;98389.41;;;10.02;92.99
24620;BME280;12763;55.802;37.404;2023-03-29T04:49:42;98381.50;;;10.06;92.33
24620;BME280;12763;55.802;37.404;2023-03-29T04:52:15;98389.50;;;10.19;90.63
24620;BME280;12763;55.802;37.404;2023-03-29T04:54:42;98386.34;;;9.76;91.95
24620;BME280;12763;55.802;37.404;2023-03-29T04:57:24;98378.03;;;10.11;91.39
24620;BME280;12763;55.802;37.404;2023-03-29T05:00:19;98374.38;;;10.33;89.27
24620;BME280;12763;55.802;37.404;2023-03-29T05:03:10;98371.13;;;10.36;88.25
24620;BME280;12763;55.802;37.404;2023-03-29T05:05:42;98379.59;;;10.18;89.28
24620;BME280;12763;55.802;37.404;2023-03-29T05:08:08;98374.47;;;10.38;88.21
24620;BME280;12763;55.802;37.404;2023-03-29T05:10:57;98376.44;;;10.26;88.69
24620;BME280;12763;55.802;37.404;2023-03-29T05:13:25;98357.44;;;10.01;90.35
24620;BME280;12763;55.802;37.404;2023-03-29T05:15:51;98360.81;;;10.43;87.50
24620;BME280;12763;55.802;37.404;2023-03-29T05:18:17;98379.72;;;10.51;87.77
24620;BME280;12763;55.802;37.404;2023-03-29T05:20:42;98365.53;;;10.31;87.67
24620;BME280;12763;55.802;37.404;2023-03-29T05:23:14;98372.28;;;10.52;87.50
24620;BME280;12763;55.802;37.404;2023-03-29T05:26:00;98374.72;;;10.37;86.71
24620;BME280;12763;55.802;37.404;2023-03-29T05:28:26;98375.00;;;10.35;87.54
24620;BME280;12763;55.802;37.404;2023-03-29T05:31:03;98373.41;;;10.39;87.91
24620;BME280;12763;55.802;37.404;2023-03-29T05:33:30;98372.34;;;10.69;85.15
24620;BME280;12763;55.802;37.404;2023-03-29T05:36:01;98378.63;;;10.52;86.10
24620;BME280;12763;55.802;37.404;2023-03-29T05:38:28;98375.38;;;10.55;86.30
24620;BME280;12763;55.802;37.404;2023-03-29T05:40:55;98362.50;;;10.61;85.91
24620;BME280;12763;55.802;37.404;2023-03-29T05:43:56;98372.97;;;10.59;85.67
24620;BME280;12763;55.802;37.404;2023-03-29T05:46:24;98380.41;;;10.58;86.20
24620;BME280;12763;55.802;37.404;2023-03-29T05:48:52;98372.97;;;11.04;83.54
24620;BME280;12763;55.802;37.404;2023-03-29T05:51:21;98381.34;;;11.09;82.84
24620;BME280;12763;55.802;37.404;2023-03-29T05:53:50;98382.50;;;11.13;82.40
24620;BME280;12763;55.802;37.404;2023-03-29T05:56:16;98384.00;;;11.04;82.77
24620;BME280;12763;55.802;37.404;2023-03-29T05:58:44;98365.00;;;11.24;82.45
24620;BME280;12763;55.802;37.404;2023-03-29T06:01:12;98369.78;;;11.45;81.33
24620;BME280;12763;55.802;37.404;2023-03-29T06:03:55;98363.78;;;11.32;81.38
24620;BME280;12763;55.802;37.404;2023-03-29T06:06:28;98369.31;;;11.32;80.78
24620;BME280;12763;55.802;37.404;2023-03-29T06:08:54;98377.03;;;10.85;83.21
24620;BME280;12763;55.802;37.404;2023-03-29T06:11:30;98366.28;;;11.33;80.78
24620;BME280;12763;55.802;37.404;2023-03-29T06:14:00;98374.56;;;11.33;80.76
24620;BME280;12763;55.802;37.404;2023-03-29T06:16:27;98374.53;;;11.50;79.09
24620;BME280;12763;55.802;37.404;2023-03-29T06:18:53;98369.84;;;11.67;78.60
24620;BME280;12763;55.802;37.404;2023-03-29T06:21:20;98370.09;;;11.65;78.77
24620;BME280;12763;55.802;37.404;2023-03-29T06:23:47;98371.69;;;11.61;77.97
24620;BME280;12763;55.802;37.404;2023-03-29T06:26:14;98371.78;;;11.50;78.89
24620;BME280;12763;55.802;37.404;2023-03-29T06:28:41;98368.59;;;11.41;79.54
24620;BME280;12763;55.802;37.404;2023-03-29T06:31:06;98363.44;;;11.28;78.58
24620;BME280;12763;55.802;37.404;2023-03-29T06:33:37;98361.59;;;11.34;79.27
24620;BME280;12763;55.802;37.404;2023-03-29T06:36:42;98352.72;;;11.48;78.78
24620;BME280;12763;55.802;37.404;2023-03-29T06:39:10;98360.31;;;11.58;78.27
24620;BME280;12763;55.802;37.404;2023-03-29T06:41:54;98352.72;;;11.48;78.70
24620;BME280;12763;55.802;37.404;2023-03-29T06:44:46;98355.19;;;11.66;78.11
24620;BME280;12763;55.802;37.404;2023-03-29T06:47:17;98354.84;;;11.63;78.07
24620;BME280;12763;55.802;37.404;2023-03-29T06:49:43;98353.03;;;11.18;80.53
24620;BME280;12763;55.802;37.404;2023-03-29T06:52:28;98356.72;;;11.24;81.17
24620;BME280;12763;55.802;37.404;2023-03-29T06:54:54;98357.56;;;11.25;81.89
24620;BME280;12763;55.802;37.404;2023-03-29T06:57:24;98358.16;;;11.10;84.23
24620;BME280;12763;55.802;37.404;2023-03-29T06:59:50;98353.47;;;11.10;84.30
24620;BME280;12763;55.802;37.404;2023-03-29T07:02:35;98359.25;;;11.26;85.02
24620;BME280;12763;55.802;37.404;2023-03-29T07:05:11;98355.41;;;11.10;87.47
24620;BME280;12763;55.802;37.404;2023-03-29T07:07:44;98355.53;;;10.87;88.78
24620;BME280;12763;55.802;37.404;2023-03-29T07:10:31;98348.94;;;10.71;90.92
24620;BME280;12763;55.802;37.404;2023-03-29T07:13:33;98363.56;;;10.88;90.65
24620;BME280;12763;55.802;37.404;2023-03-29T07:16:02;98358.22;;;10.82;90.05
24620;BME280;12763;55.802;37.404;2023-03-29T07:18:38;98362.22;;;10.91;90.26
24620;BME280;12763;55.802;37.404;2023-03-29T07:21:07;98367.03;;;11.12;89.62
24620;BME280;12763;55.802;37.404;2023-03-29T07:23:34;98368.38;;;11.26;88.31
24620;BME280;12763;55.802;37.404;2023-03-29T07:26:01;98358.19;;;11.27;87.75
24620;BME280;12763;55.802;37.404;2023-03-29T07:28:27;98373.59;;;10.78;91.70
24620;BME280;12763;55.802;37.404;2023-03-29T07:31:01;98367.94;;;11.01;93.51
24620;BME280;12763;55.802;37.404;2023-03-29T07:33:30;98369.38;;;11.03;95.00
24620;BME280;12763;55.802;37.404;2023-03-29T07:36:00;98376.91;;;11.25;92.96
24620;BME280;12763;55.802;37.404;2023-03-29T07:38:26;98371.38;;;11.25;94.16
24620;BME280;12763;55.802;37.404;2023-03-29T07:41:05;98380.78;;;10.79;97.89
24620;BME280;12763;55.802;37.404;2023-03-29T07:43:32;98380.50;;;11.08;97.67
24620;BME280;12763;55.802;37.404;2023-03-29T07:46:00;98371.03;;;10.59;100.00
24620;BME280;12763;55.802;37.404;2023-03-29T07:48:27;98380.09;;;10.72;100.00
24620;BME280;12763;55.802;37.404;2023-03-29T07:51:01;98378.13;;;11.00;98.96
24620;BME280;12763;55.802;37.404;2023-03-29T07:53:33;98374.63;;;11.05;100.00
24620;BME280;12763;55.802;37.404;2023-03-29T07:56:02;98374.75;;;11.10;99.87
24620;BME280;12763;55.802;37.404;2023-03-29T07:58:51;98374.56;;;10.72;100.00
24620;BME280;12763;55.802;37.404;2023-03-29T08:01:18;98381.81;;;11.06;99.66
24620;BME280;12763;55.802;37.404;2023-03-29T08:03:56;98369.72;;;11.24;98.72
24620;BME280;12763;55.802;37.404;2023-03-29T08:06:34;98375.53;;;11.10;98.43
24620;BME280;12763;55.802;37.404;2023-03-29T08:09:00;98371.59;;;10.90;98.59
24620;BME280;12763;55.802;37.404;2023-03-29T08:11:27;98385.34;;;11.01;98.62
24620;BME280;12763;55.802;37.404;2023-03-29T08:13:59;98382.59;;;11.01;97.54
24620;BME280;12763;55.802;37.404;2023-03-29T08:16:25;98379.31;;;10.88;98.47
24620;BME280;12763;55.802;37.404;2023-03-29T08:18:59;98383.94;;;10.99;97.51
24620;BME280;12763;55.802;37.404;2023-03-29T08:21:38;98374.31;;;11.01;96.93
24620;BME280;12763;55.802;37.404;2023-03-29T08:24:04;98377.50;;;11.10;96.72
24620;BME280;12763;55.802;37.404;2023-03-29T08:26:40;98362.78;;;11.21;95.92
24620;BME280;12763;55.802;37.404;2023-03-29T08:29:06;98360.81;;;11.38;95.80
24620;BME280;12763;55.802;37.404;2023-03-29T08:31:33;98361.59;;;11.34;95.01
24620;BME280;12763;55.802;37.404;2023-03-29T08:33:59;98368.84;;;11.56;93.60
24620;BME280;12763;55.802;37.404;2023-03-29T08:36:43;98361.03;;;11.87;92.66
24620;BME280;12763;55.802;37.404;2023-03-29T08:39:18;98354.41;;;11.88;92.18
24620;BME280;12763;55.802;37.404;2023-03-29T08:42:34;98360.16;;;12.24;91.82
24620;BME280;12763;55.802;37.404;2023-03-29T08:45:12;98358.97;;;11.99;91.49
24620;BME280;12763;55.802;37.404;2023-03-29T08:50:40;98360.81;;;11.55;93.41
24620;BME280;12763;55.802;37.404;2023-03-29T08:53:15;98359.25;;;11.42;97.37
24620;BME280;12763;55.802;37.404;2023-03-29T08:56:05;98363.25;;;11.51;96.59
24620;BME280;12763;55.802;37.404;2023-03-29T08:58:56;98364.28;;;11.12;100.00
24620;BME280;12763;55.802;37.404;2023-03-29T09:01:30;98347.84;;;11.55;100.00
24620;BME280;12763;55.802;37.404;2023-03-29T09:04:37;98354.22;;;11.39;100.00
24620;BME280;12763;55.802;37.404;2023-03-29T09:07:23;98348.44;;;11.24;100.00
24620;BME280;12763;55.802;37.404;2023-03-29T09:09:49;98352.09;;;11.46;100.00
24620;BME280;12763;55.802;37.404;2023-03-29T09:15:12;98343.50;;;11.59;100.00
24620;BME280;12763;55.802;37.404;2023-03-29T09:20:55;98335.63;;;11.51;100.00
24620;BME280;12763;55.802;37.404;2023-03-29T09:23:37;98333.59;;;11.63;100.00
24620;BME280;12763;55.802;37.404;2023-03-29T09:26:26;98322.06;;;11.50;100.00
24620;BME280;12763;55.802;37.404;2023-03-29T09:31:51;98331.78;;;11.19;100.00
24620;BME280;12763;55.802;37.404;2023-03-29T09:34:22;98337.91;;;11.38;100.00
24620;BME280;12763;55.802;37.404;2023-03-29T09:37:08;98347.00;;;11.05;100.00
24620;BME280;12763;55.802;37.404;2023-03-29T09:39:36;98334.13;;;10.94;100.00
24620;BME280;12763;55.802;37.404;2023-03-29T09:42:10;98344.94;;;11.12;100.00
24620;BME280;12763;55.802;37.404;2023-03-29T09:44:58;98333.72;;;11.02;100.00
24620;BME280;12763;55.802;37.404;2023-03-29T09:50:38;98332.97;;;11.40;100.00
24620;BME280;12763;55.802;37.404;2023-03-29T09:53:08;98338.28;;;11.46;100.00
24620;BME280;12763;55.802;37.404;2023-03-29T09:55:37;98328.63;;;11.10;100.00
24620;BME280;12763;55.802;37.404;2023-03-29T09:58:22;98343.69;;;11.03;100.00
24620;BME280;12763;55.802;37.404;2023-03-29T10:00:51;98339.84;;;11.04;100.00
24620;BME280;12763;55.802;37.404;2023-03-29T10:03:21;98331.06;;;11.24;100.00
24620;BME280;12763;55.802;37.404;2023-03-29T10:06:06;98342.75;;;10.97;100.00
24620;BME280;12763;55.802;37.404;2023-03-29T10:11:20;98340.34;;;11.34;100.00
24620;BME280;12763;55.802;37.404;2023-03-29T10:13:50;98330.63;;;11.48;100.00
24620;BME280;12763;55.802;37.404;2023-03-29T10:16:24;98336.66;;;11.45;100.00
24620;BME280;12763;55.802;37.404;2023-03-29T10:18:53;98325.75;;;11.55;100.00
24620;BME280;12763;55.802;37.404;2023-03-29T10:21:19;98330.78;;;11.25;100.00
24620;BME280;12763;55.802;37.404;2023-03-29T10:23:46;98325.78;;;11.22;100.00
24620;BME280;12763;55.802;37.404;2023-03-29T10:26:23;98325.81;;;11.60;100.00
24620;BME280;12763;55.802;37.404;2023-03-29T10:28:53;98329.19;;;11.46;100.00
24620;BME280;12763;55.802;37.404;2023-03-29T10:31:22;98324.13;;;11.04;100.00
24620;BME280;12763;55.802;37.404;2023-03-29T10:33:54;98324.78;;;11.28;100.00
24620;BME280;12763;55.802;37.404;2023-03-29T10:36:22;98329.38;;;11.39;100.00
24620;BME280;12763;55.802;37.404;2023-03-29T10:38:50;98316.22;;;11.13;100.00
24620;BME280;12763;55.802;37.404;2023-03-29T10:41:16;98306.19;;;11.40;100.00
24620;BME280;12763;55.802;37.404;2023-03-29T10:43:46;98316.06;;;11.36;100.00
24620;BME280;12763;55.802;37.404;2023-03-29T10:49:03;98317.00;;;11.25;100.00
24620;BME280;12763;55.802;37.404;2023-03-29T10:51:35;98315.31;;;11.07;100.00
24620;BME280;12763;55.802;37.404;2023-03-29T10:54:02;98304.78;;;11.21;100.00
24620;BME280;12763;55.802;37.404;2023-03-29T11:12:19;98310.56;;;11.19;100.00
24620;BME280;12763;55.802;37.404;2023-03-29T11:15:02;98318.25;;;11.17;100.00
24620;BME280;12763;55.802;37.404;2023-03-29T11:20:27;98320.44;;;10.99;100.00
24620;BME280;12763;55.802;37.404;2023-03-29T11:25:56;98314.06;;;10.98;100.00
24620;BME280;12763;55.802;37.404;2023-03-29T11:42:57;98318.31;;;10.73;100.00
24620;BME280;12763;55.802;37.404;2023-03-29T11:45:30;98313.66;;;10.90;100.00
24620;BME280;12763;55.802;37.404;2023-03-29T11:48:00;98319.66;;;10.70;100.00
24620;BME280;12763;55.802;37.404;2023-03-29T11:51:06;98316.06;;;10.86;100.00
24620;BME280;12763;55.802;37.404;2023-03-29T11:56:17;98322.16;;;10.72;100.00
24620;BME280;12763;55.802;37.404;2023-03-29T11:58:47;98327.84;;;10.65;100.00
24620;BME280;12763;55.802;37.404;2023-03-29T12:01:43;98330.44;;;10.88;100.00
24620;BME280;12763;55.802;37.404;2023-03-29T12:04:16;98324.19;;;10.93;100.00
24620;BME280;12763;55.802;37.404;2023-03-29T12:07:17;98322.94;;;10.84;100.00
24620;BME280;12763;55.802;37.404;2023-03-29T12:09:52;98308.22;;;10.95;100.00
24620;BME280;12763;55.802;37.404;2023-03-29T12:12:25;98319.09;;;11.01;100.00
24620;BME280;12763;55.802;37.404;2023-03-29T12:15:03;98298.06;;;10.50;100.00
24620;BME280;12763;55.802;37.404;2023-03-29T12:17:35;98320.28;;;10.60;100.00
24620;BME280;12763;55.802;37.404;2023-03-29T12:20:12;98318.25;;;10.84;100.00
24620;BME280;12763;55.802;37.404;2023-03-29T12:22:45;98324.13;;;10.88;100.00
24620;BME280;12763;55.802;37.404;2023-03-29T12:25:15;98324.63;;;10.85;100.00
24620;BME280;12763;55.802;37.404;2023-03-29T12:28:01;98322.94;;;10.84;100.00
24620;BME280;12763;55.802;37.404;2023-03-29T12:39:44;98324.09;;;10.71;100.00
24620;BME280;12763;55.802;37.404;2023-03-29T12:42:29;98337.94;;;10.59;100.00
24620;BME280;12763;55.802;37.404;2023-03-29T12:48:21;98343.53;;;10.93;100.00
24620;BME280;12763;55.802;37.404;2023-03-29T12:50:51;98334.22;;;10.82;100.00
24620;BME280;12763;55.802;37.404;2023-03-29T12:53:23;98344.88;;;11.07;100.00
24620;BME280;12763;55.802;37.404;2023-03-29T12:56:12;98334.09;;;10.60;100.00
24620;BME280;12763;55.802;37.404;2023-03-29T13:01:08;98330.84;;;10.63;100.00
24620;BME280;12763;55.802;37.404;2023-03-29T13:06:27;98340.22;;;10.63;100.00
24620;BME280;12763;55.802;37.404;2023-03-29T13:11:44;98343.84;;;10.96;100.00
24620;BME280;12763;55.802;37.404;2023-03-29T13:14:19;98342.41;;;10.94;100.00
24620;BME280;12763;55.802;37.404;2023-03-29T13:16:45;98333.03;;;10.78;100.00
24620;BME280;12763;55.802;37.404;2023-03-29T13:22:38;98330.09;;;10.68;100.00
24620;BME280;12763;55.802;37.404;2023-03-29T13:27:59;98340.47;;;10.78;100.00
24620;BME280;12763;55.802;37.404;2023-03-29T13:31:03;98350.63;;;10.60;100.00
24620;BME280;12763;55.802;37.404;2023-03-29T13:36:34;98353.97;;;10.46;100.00
24620;BME280;12763;55.802;37.404;2023-03-29T13:39:05;98354.06;;;10.51;100.00
24620;BME280;12763;55.802;37.404;2023-03-29T13:44:04;98364.09;;;10.57;100.00
24620;BME280;12763;55.802;37.404;2023-03-29T13:46:43;98374.69;;;10.48;100.00
24620;BME280;12763;55.802;37.404;2023-03-29T13:49:21;98372.50;;;10.50;100.00
24620;BME280;12763;55.802;37.404;2023-03-29T13:52:14;98369.88;;;10.72;100.00
24620;BME280;12763;55.802;37.404;2023-03-29T13:54:45;98382.16;;;10.65;100.00
24620;BME280;12763;55.802;37.404;2023-03-29T13:57:19;98380.69;;;10.74;100.00
24620;BME280;12763;55.802;37.404;2023-03-29T13:59:52;98380.56;;;10.52;100.00
24620;BME280;12763;55.802;37.404;2023-03-29T14:02:39;98381.84;;;10.33;100.00
24620;BME280;12763;55.802;37.404;2023-03-29T14:05:08;98391.31;;;10.25;100.00
24620;BME280;12763;55.802;37.404;2023-03-29T14:07:38;98398.31;;;10.44;100.00
24620;BME280;12763;55.802;37.404;2023-03-29T14:10:06;98401.56;;;10.41;100.00
24620;BME280;12763;55.802;37.404;2023-03-29T14:12:35;98395.97;;;10.25;100.00
24620;BME280;12763;55.802;37.404;2023-03-29T14:15:04;98405.66;;;10.39;100.00
24620;BME280;12763;55.802;37.404;2023-03-29T14:17:31;98409.25;;;10.39;100.00
24620;BME280;12763;55.802;37.404;2023-03-29T14:19:59;98411.81;;;10.18;100.00
24620;BME280;12763;55.802;37.404;2023-03-29T14:22:32;98418.59;;;10.38;100.00
24620;BME280;12763;55.802;37.404;2023-03-29T14:25:04;98399.38;;;10.15;100.00
24620;BME280;12763;55.802;37.404;2023-03-29T14:27:31;98407.84;;;10.25;100.00
24620;BME280;12763;55.802;37.404;2023-03-29T14:29:57;98416.44;;;10.40;100.00
24620;BME280;12763;55.802;37.404;2023-03-29T14:32:31;98416.56;;;10.34;100.00
24620;BME280;12763;55.802;37.404;2023-03-29T14:34:59;98419.34;;;10.22;100.00
24620;BME280;12763;55.802;37.404;2023-03-29T14:37:26;98412.88;;;10.28;100.00
24620;BME280;12763;55.802;37.404;2023-03-29T14:39:54;98414.66;;;10.34;100.00
24620;BME280;12763;55.802;37.404;2023-03-29T14:42:27;98426.38;;;10.41;100.00
24620;BME280;12763;55.802;37.404;2023-03-29T14:45:04;98428.03;;;10.54;100.00
24620;BME280;12763;55.802;37.404;2023-03-29T14:47:31;98436.41;;;9.96;100.00
24620;BME280;12763;55.802;37.404;2023-03-29T14:49:58;98431.84;;;10.13;100.00
24620;BME280;12763;55.802;37.404;2023-03-29T14:52:27;98439.97;;;10.31;100.00
24620;BME280;12763;55.802;37.404;2023-03-29T14:54:55;98433.63;;;9.96;100.00
24620;BME280;12763;55.802;37.404;2023-03-29T14:57:25;98447.16;;;10.32;100.00
24620;BME280;12763;55.802;37.404;2023-03-29T14:59:57;98439.28;;;10.52;100.00
24620;BME280;12763;55.802;37.404;2023-03-29T15:02:26;98430.84;;;10.31;100.00
24620;BME280;12763;55.802;37.404;2023-03-29T15:05:01;98432.63;;;10.37;100.00
24620;BME280;12763;55.802;37.404;2023-03-29T15:07:31;98443.53;;;10.43;100.00